sensor_id;sensor_type;location;lat;lon;timestamp;P1;durP1;ratioP1;P2;durP2;ratioP2
37877;SDS011;23715;53.652;8.516;2023-06-01T00:01:50;47.17;;;43.35;;
37877;SDS011;23715;53.652;8.516;2023-06-01T00:06:50;44.80;;;41.13;;
37877;SDS011;23715;53.652;8.516;2023-06-01T00:11:51;41.77;;;38.58;;
37877;SDS011;23715;53.652;8.516;2023-06-01T00:16:51;38.45;;;35.43;;
37877;SDS011;23715;53.652;8.516;2023-06-01T00:21:53;38.63;;;36.03;;
37877;SDS011;23715;53.652;8.516;2023-06-01T00:26:55;37.67;;;34.85;;
37877;SDS011;23715;53.652;8.516;2023-06-01T00:31:55;41.18;;;37.28;;
37877;SDS011;23715;53.652;8.516;2023-06-01T00:36:56;42.00;;;38.33;;
37877;SDS011;23715;53.652;8.516;2023-06-01T00:41:57;39.48;;;36.35;;
37877;SDS011;23715;53.652;8.516;2023-06-01T00:46:59;42.03;;;38.85;;
37877;SDS011;23715;53.652;8.516;2023-06-01T00:52:00;46.90;;;43.38;;
37877;SDS011;23715;53.652;8.516;2023-06-01T00:57:02;46.98;;;43.78;;
37877;SDS011;23715;53.652;8.516;2023-06-01T01:02:04;46.70;;;43.15;;
37877;SDS011;23715;53.652;8.516;2023-06-01T01:07:09;46.48;;;43.10;;
37877;SDS011;23715;53.652;8.516;2023-06-01T01:12:32;52.35;;;48.00;;
37877;SDS011;23715;53.652;8.516;2023-06-01T01:17:43;50.20;;;46.67;;
37877;SDS011;23715;53.652;8.516;2023-06-01T01:33:12;46.63;;;43.08;;
37877;SDS011;23715;53.652;8.516;2023-06-01T01:38:14;50.65;;;46.90;;
37877;SDS011;23715;53.652;8.516;2023-06-01T01:43:15;49.60;;;46.05;;
37877;SDS011;23715;53.652;8.516;2023-06-01T01:48:25;44.13;;;40.38;;
37877;SDS011;23715;53.652;8.516;2023-06-01T01:53:23;46.48;;;42.65;;
37877;SDS011;23715;53.652;8.516;2023-06-01T01:58:25;46.50;;;42.70;;
37877;SDS011;23715;53.652;8.516;2023-06-01T02:03:27;45.15;;;41.95;;
37877;SDS011;23715;53.652;8.516;2023-06-01T02:08:27;45.73;;;41.88;;
37877;SDS011;23715;53.652;8.516;2023-06-01T02:18:28;51.48;;;46.90;;
37877;SDS011;23715;53.652;8.516;2023-06-01T02:23:32;48.30;;;44.35;;
37877;SDS011;23715;53.652;8.516;2023-06-01T02:28:33;48.23;;;44.60;;
37877;SDS011;23715;53.652;8.516;2023-06-01T02:33:35;48.10;;;44.42;;
37877;SDS011;23715;53.652;8.516;2023-06-01T02:38:37;45.33;;;41.88;;
37877;SDS011;23715;53.652;8.516;2023-06-01T02:43:38;44.80;;;41.25;;
37877;SDS011;23715;53.652;8.516;2023-06-01T02:48:39;50.43;;;46.80;;
37877;SDS011;23715;53.652;8.516;2023-06-01T02:53:40;45.17;;;42.00;;
37877;SDS011;23715;53.652;8.516;2023-06-01T02:58:42;44.83;;;40.75;;
37877;SDS011;23715;53.652;8.516;2023-06-01T03:03:50;48.20;;;44.75;;
37877;SDS011;23715;53.652;8.516;2023-06-01T03:08:51;47.00;;;43.33;;
37877;SDS011;23715;53.652;8.516;2023-06-01T03:13:59;50.75;;;46.73;;
37877;SDS011;23715;53.652;8.516;2023-06-01T03:19:01;47.60;;;43.83;;
37877;SDS011;23715;53.652;8.516;2023-06-01T03:24:01;49.55;;;46.02;;
37877;SDS011;23715;53.652;8.516;2023-06-01T03:29:02;49.00;;;45.28;;
37877;SDS011;23715;53.652;8.516;2023-06-01T03:34:03;51.37;;;47.65;;
37877;SDS011;23715;53.652;8.516;2023-06-01T03:44:05;51.85;;;48.25;;
37877;SDS011;23715;53.652;8.516;2023-06-01T03:49:06;50.95;;;46.53;;
37877;SDS011;23715;53.652;8.516;2023-06-01T03:54:08;49.27;;;45.28;;
37877;SDS011;23715;53.652;8.516;2023-06-01T03:59:09;50.90;;;47.27;;
37877;SDS011;23715;53.652;8.516;2023-06-01T04:09:11;49.83;;;46.13;;
37877;SDS011;23715;53.652;8.516;2023-06-01T04:14:13;48.75;;;45.28;;
37877;SDS011;23715;53.652;8.516;2023-06-01T04:19:14;47.93;;;44.18;;
37877;SDS011;23715;53.652;8.516;2023-06-01T04:24:15;45.55;;;42.25;;
37877;SDS011;23715;53.652;8.516;2023-06-01T04:29:16;42.75;;;39.30;;
37877;SDS011;23715;53.652;8.516;2023-06-01T04:34:18;45.90;;;42.25;;
37877;SDS011;23715;53.652;8.516;2023-06-01T04:39:19;46.13;;;42.98;;
37877;SDS011;23715;53.652;8.516;2023-06-01T04:44:21;45.78;;;42.75;;
37877;SDS011;23715;53.652;8.516;2023-06-01T04:49:21;45.15;;;41.73;;
37877;SDS011;23715;53.652;8.516;2023-06-01T04:54:23;44.08;;;40.98;;
37877;SDS011;23715;53.652;8.516;2023-06-01T04:59:24;42.73;;;39.27;;
37877;SDS011;23715;53.652;8.516;2023-06-01T05:09:30;49.93;;;46.50;;
37877;SDS011;23715;53.652;8.516;2023-06-01T05:14:32;42.43;;;39.35;;
37877;SDS011;23715;53.652;8.516;2023-06-01T05:19:34;45.45;;;42.33;;
37877;SDS011;23715;53.652;8.516;2023-06-01T05:24:35;46.18;;;42.78;;
37877;SDS011;23715;53.652;8.516;2023-06-01T05:29:41;47.62;;;43.90;;
37877;SDS011;23715;53.652;8.516;2023-06-01T05:34:43;44.63;;;41.33;;
37877;SDS011;23715;53.652;8.516;2023-06-01T05:39:46;49.30;;;45.33;;
37877;SDS011;23715;53.652;8.516;2023-06-01T05:44:47;51.75;;;47.73;;
37877;SDS011;23715;53.652;8.516;2023-06-01T05:54:50;47.90;;;44.23;;
37877;SDS011;23715;53.652;8.516;2023-06-01T06:04:59;51.02;;;47.13;;
37877;SDS011;23715;53.652;8.516;2023-06-01T06:09:59;48.92;;;45.28;;
37877;SDS011;23715;53.652;8.516;2023-06-01T06:15:01;45.60;;;42.30;;
37877;SDS011;23715;53.652;8.516;2023-06-01T06:20:05;46.02;;;42.50;;
37877;SDS011;23715;53.652;8.516;2023-06-01T06:25:06;48.30;;;44.40;;
37877;SDS011;23715;53.652;8.516;2023-06-01T06:30:10;45.63;;;42.00;;
37877;SDS011;23715;53.652;8.516;2023-06-01T06:35:12;44.35;;;40.83;;
37877;SDS011;23715;53.652;8.516;2023-06-01T06:40:15;45.03;;;41.50;;
37877;SDS011;23715;53.652;8.516;2023-06-01T06:45:16;46.55;;;43.25;;
37877;SDS011;23715;53.652;8.516;2023-06-01T06:50:18;46.73;;;43.60;;
37877;SDS011;23715;53.652;8.516;2023-06-01T06:55:20;44.08;;;41.05;;
37877;SDS011;23715;53.652;8.516;2023-06-01T07:05:28;42.95;;;40.25;;
37877;SDS011;23715;53.652;8.516;2023-06-01T07:10:30;45.63;;;42.20;;
37877;SDS011;23715;53.652;8.516;2023-06-01T07:15:30;49.77;;;45.63;;
37877;SDS011;23715;53.652;8.516;2023-06-01T07:20:31;44.20;;;40.78;;
37877;SDS011;23715;53.652;8.516;2023-06-01T07:25:31;48.30;;;44.58;;
37877;SDS011;23715;53.652;8.516;2023-06-01T07:30:31;40.33;;;37.23;;
37877;SDS011;23715;53.652;8.516;2023-06-01T07:41:36;44.60;;;41.53;;
37877;SDS011;23715;53.652;8.516;2023-06-01T07:46:54;44.85;;;41.05;;
37877;SDS011;23715;53.652;8.516;2023-06-01T07:52:09;43.28;;;40.23;;
37877;SDS011;23715;53.652;8.516;2023-06-01T07:57:13;40.40;;;37.40;;
37877;SDS011;23715;53.652;8.516;2023-06-01T08:02:15;44.23;;;40.52;;
37877;SDS011;23715;53.652;8.516;2023-06-01T08:22:50;40.43;;;37.25;;
37877;SDS011;23715;53.652;8.516;2023-06-01T08:33:21;40.90;;;37.55;;
37877;SDS011;23715;53.652;8.516;2023-06-01T08:43:29;41.48;;;38.25;;
37877;SDS011;23715;53.652;8.516;2023-06-01T08:48:32;43.17;;;39.88;;
37877;SDS011;23715;53.652;8.516;2023-06-01T08:53:33;39.03;;;36.10;;
37877;SDS011;23715;53.652;8.516;2023-06-01T09:03:41;40.15;;;36.68;;
37877;SDS011;23715;53.652;8.516;2023-06-01T09:09:10;39.70;;;36.38;;
37877;SDS011;23715;53.652;8.516;2023-06-01T09:19:15;43.73;;;40.05;;
37877;SDS011;23715;53.652;8.516;2023-06-01T09:24:18;49.03;;;45.30;;
37877;SDS011;23715;53.652;8.516;2023-06-01T09:29:22;51.13;;;47.35;;
37877;SDS011;23715;53.652;8.516;2023-06-01T09:55:06;37.78;;;35.13;;
37877;SDS011;23715;53.652;8.516;2023-06-01T10:05:15;42.33;;;38.55;;
37877;SDS011;23715;53.652;8.516;2023-06-01T10:16:14;40.85;;;37.25;;
37877;SDS011;23715;53.652;8.516;2023-06-01T10:26:16;38.00;;;34.83;;
37877;SDS011;23715;53.652;8.516;2023-06-01T10:57:28;37.55;;;34.48;;
37877;SDS011;23715;53.652;8.516;2023-06-01T11:02:29;38.13;;;34.93;;
